createdAt,value
2023-02-03T00:00:41.876Z,0.52
2023-02-03T00:01:41.937Z,0.50
2023-02-03T00:02:41.913Z,0.50
2023-02-03T00:03:41.859Z,0.51
2023-02-03T00:04:41.847Z,0.51
2023-02-03T00:05:41.829Z,0.51
2023-02-03T00:06:41.817Z,0.51
2023-02-03T00:07:41.813Z,0.51
2023-02-03T00:08:41.791Z,0.52
2023-02-03T00:09:41.767Z,0.51
2023-02-03T00:10:41.749Z,0.51
2023-02-03T00:11:41.741Z,0.52
2023-02-03T00:12:41.743Z,0.52
2023-02-03T00:13:41.725Z,0.52
2023-02-03T00:14:41.699Z,0.51
2023-02-03T00:15:41.682Z,0.51
2023-02-03T00:16:41.688Z,0.51
2023-02-03T00:17:41.651Z,0.52
2023-02-03T00:18:41.632Z,0.52
2023-02-03T00:19:41.621Z,0.51
2023-02-03T00:20:41.615Z,0.51
2023-02-03T00:21:41.591Z,0.51
2023-02-03T00:22:41.588Z,0.51
2023-02-03T00:23:41.567Z,0.51
2023-02-03T00:24:41.547Z,0.51
2023-02-03T00:25:41.569Z,0.51
2023-02-03T00:26:41.519Z,0.51
2023-02-03T00:27:41.543Z,0.51
2023-02-03T00:28:41.510Z,0.51
2023-02-03T00:29:41.489Z,0.51
2023-02-03T00:30:41.481Z,0.51
2023-02-03T00:31:41.568Z,0.51
2023-02-03T00:32:41.483Z,0.51
2023-02-03T00:33:41.437Z,0.51
2023-02-03T00:34:41.425Z,0.52
2023-02-03T00:35:41.432Z,0.51
2023-02-03T00:36:42.971Z,0.50
2023-02-03T00:37:41.395Z,0.52
2023-02-03T00:38:41.389Z,0.51
2023-02-03T00:39:41.366Z,0.51
2023-02-03T00:40:41.358Z,0.51
2023-02-03T00:41:41.345Z,0.51
2023-02-03T00:42:41.330Z,0.51
2023-02-03T00:43:41.312Z,0.52
2023-02-03T00:44:41.312Z,0.51
2023-02-03T00:45:41.316Z,0.51
2023-02-03T00:46:41.297Z,0.51
2023-02-03T00:47:41.322Z,0.51
2023-02-03T00:48:41.289Z,0.51
2023-02-03T00:49:41.299Z,0.51
2023-02-03T00:50:41.278Z,0.51
2023-02-03T00:51:41.235Z,0.51
2023-02-03T00:52:41.259Z,0.51
2023-02-03T00:53:41.215Z,0.51
2023-02-03T00:54:41.195Z,0.50
2023-02-03T00:55:41.194Z,0.51
2023-02-03T00:56:41.188Z,0.51
2023-02-03T00:57:41.183Z,0.51
2023-02-03T00:58:41.148Z,0.52
2023-02-03T00:59:41.120Z,0.52
2023-02-03T01:00:41.118Z,0.51
2023-02-03T01:01:41.100Z,0.51
2023-02-03T01:02:41.096Z,0.52
2023-02-03T01:03:41.079Z,0.51
2023-02-03T01:04:41.056Z,0.50
2023-02-03T01:05:41.059Z,0.51
2023-02-03T01:06:41.042Z,0.52
2023-02-03T01:07:41.035Z,0.51
2023-02-03T01:08:41.026Z,0.51
2023-02-03T01:09:41.034Z,0.51
2023-02-03T01:10:41.007Z,0.52
2023-02-03T01:11:40.999Z,0.51
2023-02-03T01:12:40.993Z,0.51
2023-02-03T01:13:40.978Z,0.51
2023-02-03T01:14:40.972Z,0.50
2023-02-03T01:15:40.960Z,0.52
2023-02-03T01:16:41.036Z,0.51
2023-02-03T01:17:40.943Z,0.51
2023-02-03T01:18:40.960Z,0.51
2023-02-03T01:19:40.927Z,0.51
2023-02-03T01:20:40.926Z,0.51
2023-02-03T01:21:40.917Z,0.50
2023-02-03T01:22:40.932Z,0.51
2023-02-03T01:23:40.912Z,0.52
2023-02-03T01:24:40.895Z,0.52
2023-02-03T01:25:40.918Z,0.52
2023-02-03T01:26:40.890Z,0.51
2023-02-03T01:27:40.904Z,0.52
2023-02-03T01:28:40.856Z,0.51
2023-02-03T01:29:40.857Z,0.51
2023-02-03T01:30:40.999Z,0.51
2023-02-03T01:31:41.038Z,0.52
2023-02-03T01:32:40.844Z,0.52
2023-02-03T01:33:40.829Z,0.51
2023-02-03T01:34:40.819Z,0.51
2023-02-03T01:35:40.821Z,0.51
2023-02-03T01:36:40.802Z,0.51
2023-02-03T01:37:40.791Z,0.51
2023-02-03T01:38:40.787Z,0.51
2023-02-03T01:39:40.797Z,0.51
2023-02-03T01:40:40.774Z,0.51
2023-02-03T01:41:40.781Z,0.52
2023-02-03T01:42:40.772Z,0.51
2023-02-03T01:43:40.791Z,0.52
2023-02-03T01:44:40.759Z,0.50
2023-02-03T01:45:40.735Z,0.51
2023-02-03T01:46:40.728Z,0.50
2023-02-03T01:48:40.722Z,0.52
2023-02-03T01:49:40.699Z,0.51
2023-02-03T01:50:40.686Z,0.51
2023-02-03T01:51:40.669Z,0.51
2023-02-03T01:52:40.664Z,0.52
2023-02-03T01:53:40.662Z,0.52
2023-02-03T01:54:40.658Z,0.52
2023-02-03T01:55:40.637Z,0.51
2023-02-03T01:56:40.654Z,0.51
2023-02-03T01:57:40.630Z,0.51
2023-02-03T01:58:40.631Z,0.51
2023-02-03T01:59:40.612Z,0.51
2023-02-03T02:00:40.609Z,0.51
2023-02-03T02:01:40.636Z,0.50
2023-02-03T02:02:40.670Z,0.50
2023-02-03T02:03:40.592Z,0.51
2023-02-03T02:04:40.586Z,0.50
2023-02-03T02:05:40.583Z,0.52
2023-02-03T02:06:40.577Z,0.52
2023-02-03T02:07:40.563Z,0.51
2023-02-03T02:08:40.558Z,0.52
2023-02-03T02:09:40.549Z,0.51
2023-02-03T02:10:40.535Z,0.52
2023-02-03T02:11:40.532Z,0.52
2023-02-03T02:12:40.513Z,0.52
2023-02-03T02:13:40.519Z,0.51
2023-02-03T02:14:40.507Z,0.51
2023-02-03T02:15:40.509Z,0.51
2023-02-03T02:16:40.492Z,0.52
2023-02-03T02:17:40.472Z,0.51
2023-02-03T02:18:40.511Z,0.51
2023-02-03T02:19:40.459Z,0.51
2023-02-03T02:20:40.445Z,0.51
2023-02-03T02:21:40.442Z,0.52
2023-02-03T02:22:40.431Z,0.52
2023-02-03T02:23:40.421Z,0.52
2023-02-03T02:24:40.412Z,0.51
2023-02-03T02:25:40.417Z,0.51
2023-02-03T02:26:40.398Z,0.51
2023-02-03T02:27:40.420Z,0.51
2023-02-03T02:28:40.387Z,0.51
2023-02-03T02:29:40.391Z,0.51
2023-02-03T02:30:40.454Z,0.51
2023-02-03T02:31:40.404Z,0.52
2023-02-03T02:32:40.355Z,0.52
2023-02-03T02:33:40.341Z,0.51
2023-02-03T02:34:40.324Z,0.51
2023-02-03T02:35:40.312Z,0.51
2023-02-03T02:36:40.300Z,0.51
2023-02-03T02:37:40.305Z,0.52
2023-02-03T02:38:40.279Z,0.51
2023-02-03T02:39:40.279Z,0.50
2023-02-03T02:40:40.254Z,0.52
2023-02-03T02:41:40.231Z,0.51
2023-02-03T02:42:40.232Z,0.51
2023-02-03T02:43:40.202Z,0.50
2023-02-03T02:44:40.183Z,0.52
2023-02-03T02:45:40.169Z,0.52
2023-02-03T02:46:40.177Z,0.52
2023-02-03T02:47:40.142Z,0.52
2023-02-03T02:48:40.131Z,0.52
2023-02-03T02:49:40.123Z,0.51
2023-02-03T02:50:40.100Z,0.52
2023-02-03T02:51:40.087Z,0.51
2023-02-03T02:52:40.084Z,0.52
2023-02-03T02:53:40.083Z,0.51
2023-02-03T02:54:40.086Z,0.51
2023-02-03T02:55:40.070Z,0.52
2023-02-03T02:56:40.064Z,0.52
2023-02-03T02:57:40.054Z,0.51
2023-02-03T02:58:40.022Z,0.51
2023-02-03T02:59:40.020Z,0.51
2023-02-03T03:00:39.992Z,0.51
2023-02-03T03:01:39.999Z,0.51
2023-02-03T03:02:39.967Z,0.51
2023-02-03T03:03:39.955Z,0.51
2023-02-03T03:04:39.965Z,0.51
2023-02-03T03:05:39.933Z,0.51
2023-02-03T03:06:39.902Z,0.50
2023-02-03T03:07:39.888Z,0.51
2023-02-03T03:08:39.863Z,0.50
2023-02-03T03:09:39.855Z,0.52
2023-02-03T03:10:39.869Z,0.51
2023-02-03T03:11:39.846Z,0.51
2023-02-03T03:12:39.811Z,0.51
2023-02-03T03:13:39.803Z,0.52
2023-02-03T03:14:39.786Z,0.51
2023-02-03T03:15:39.797Z,0.52
2023-02-03T03:16:39.764Z,0.52
2023-02-03T03:17:39.738Z,0.51
2023-02-03T03:18:39.713Z,0.51
2023-02-03T03:19:39.712Z,0.51
2023-02-03T03:20:39.691Z,0.52
2023-02-03T03:21:39.660Z,0.51
2023-02-03T03:22:39.644Z,0.52
2023-02-03T03:23:39.835Z,0.52
2023-02-03T03:24:40.073Z,0.52
2023-02-03T03:25:39.613Z,0.51
2023-02-03T03:26:39.605Z,0.51
2023-02-03T03:27:39.649Z,0.51
2023-02-03T03:28:39.563Z,0.51
2023-02-03T03:29:39.576Z,0.51
2023-02-03T03:30:39.576Z,0.52
2023-02-03T03:31:39.685Z,0.52
2023-02-03T03:32:39.529Z,0.52
2023-02-03T03:33:39.532Z,0.53
2023-02-03T03:34:39.502Z,0.51
2023-02-03T03:35:39.503Z,0.52
2023-02-03T03:36:39.496Z,0.52
2023-02-03T03:37:39.483Z,0.51
2023-02-03T03:38:39.478Z,0.51
2023-02-03T03:39:39.463Z,0.51
2023-02-03T03:40:39.447Z,0.51
2023-02-03T03:41:39.440Z,0.51
2023-02-03T03:42:39.406Z,0.52
2023-02-03T03:43:39.405Z,0.51
2023-02-03T03:44:39.386Z,0.52
2023-02-03T03:45:39.414Z,0.52
2023-02-03T03:46:39.446Z,0.52
2023-02-03T03:47:39.350Z,0.52
2023-02-03T03:48:39.351Z,0.52
2023-02-03T03:49:39.380Z,0.52
2023-02-03T03:50:39.355Z,0.52
2023-02-03T03:51:39.313Z,0.51
2023-02-03T03:52:39.290Z,0.50
2023-02-03T03:53:39.273Z,0.51
2023-02-03T03:54:39.254Z,0.51
2023-02-03T03:55:39.243Z,0.52
2023-02-03T03:56:39.224Z,0.51
2023-02-03T03:57:39.202Z,0.52
2023-02-03T03:58:39.173Z,0.52
2023-02-03T03:59:39.160Z,0.52
2023-02-03T04:00:39.175Z,0.51
2023-02-03T04:01:39.333Z,0.51
2023-02-03T04:02:39.212Z,0.52
2023-02-03T04:03:39.105Z,0.52
2023-02-03T04:04:39.072Z,0.51
2023-02-03T04:05:39.066Z,0.51
2023-02-03T04:06:39.033Z,0.52
2023-02-03T04:07:39.031Z,0.51
2023-02-03T04:08:39.006Z,0.52
2023-02-03T04:09:39.005Z,0.52
2023-02-03T04:10:39.004Z,0.52
2023-02-03T04:11:38.975Z,0.51
2023-02-03T04:12:38.966Z,0.51
2023-02-03T04:13:38.957Z,0.52
2023-02-03T04:14:39.133Z,0.52
2023-02-03T04:15:38.919Z,0.52
2023-02-03T04:16:38.909Z,0.51
2023-02-03T04:17:38.894Z,0.52
2023-02-03T04:18:38.878Z,0.51
2023-02-03T04:19:38.869Z,0.51
2023-02-03T04:20:38.854Z,0.51
2023-02-03T04:21:38.837Z,0.51
2023-02-03T04:22:38.826Z,0.52
2023-02-03T04:23:38.811Z,0.51
2023-02-03T04:24:38.796Z,0.51
2023-02-03T04:25:38.773Z,0.52
2023-02-03T04:26:38.760Z,0.52
2023-02-03T04:27:38.753Z,0.51
2023-02-03T04:28:38.727Z,0.51
2023-02-03T04:29:38.721Z,0.52
2023-02-03T04:30:38.711Z,0.51
2023-02-03T04:31:38.726Z,0.50
2023-02-03T04:32:38.680Z,0.50
2023-02-03T04:33:38.665Z,0.52
2023-02-03T04:34:38.649Z,0.51
2023-02-03T04:35:38.648Z,0.51
2023-02-03T04:36:38.625Z,0.51
2023-02-03T04:37:38.600Z,0.51
2023-02-03T04:38:38.591Z,0.52
2023-02-03T04:39:38.573Z,0.52
2023-02-03T04:40:38.556Z,0.52
2023-02-03T04:41:38.560Z,0.52
2023-02-03T04:42:38.526Z,0.51
2023-02-03T04:43:38.506Z,0.52
2023-02-03T04:44:38.516Z,0.52
2023-02-03T04:45:38.516Z,0.51
2023-02-03T04:46:38.483Z,0.51
2023-02-03T04:47:38.466Z,0.51
2023-02-03T04:48:38.454Z,0.51
2023-02-03T04:49:38.467Z,0.52
2023-02-03T04:50:38.424Z,0.52
2023-02-03T04:51:38.437Z,0.52
2023-02-03T04:52:38.403Z,0.52
2023-02-03T04:53:38.393Z,0.52
2023-02-03T04:54:38.371Z,0.51
2023-02-03T04:55:38.360Z,0.51
2023-02-03T04:56:38.348Z,0.51
2023-02-03T04:57:38.329Z,0.52
2023-02-03T04:58:38.319Z,0.52
2023-02-03T04:59:38.298Z,0.52
2023-02-03T05:00:38.314Z,0.51
2023-02-03T05:01:38.284Z,0.51
2023-02-03T05:02:38.271Z,0.51
2023-02-03T05:03:38.310Z,0.51
2023-02-03T05:04:38.237Z,0.52
2023-02-03T05:05:38.234Z,0.51
2023-02-03T05:06:38.314Z,0.50
2023-02-03T05:07:38.207Z,0.51
2023-02-03T05:08:38.188Z,0.51
2023-02-03T05:09:38.194Z,0.51
2023-02-03T05:10:38.178Z,0.51
2023-02-03T05:11:38.160Z,0.52
2023-02-03T05:12:38.172Z,0.51
2023-02-03T05:13:38.146Z,0.51
2023-02-03T05:14:38.140Z,0.52
2023-02-03T05:15:38.127Z,0.50
2023-02-03T05:16:38.174Z,0.51
2023-02-03T05:17:38.121Z,0.51
2023-02-03T05:18:38.089Z,0.51
2023-02-03T05:19:38.093Z,0.52
2023-02-03T05:20:38.088Z,0.52
2023-02-03T05:21:38.062Z,0.52
2023-02-03T05:22:38.060Z,0.52
2023-02-03T05:23:38.037Z,0.51
2023-02-03T05:24:38.034Z,0.52
2023-02-03T05:25:38.010Z,0.52
2023-02-03T05:26:38.002Z,0.52
2023-02-03T05:27:38.055Z,0.52
2023-02-03T05:28:38.004Z,0.51
2023-02-03T05:29:37.971Z,0.51
2023-02-03T05:30:37.998Z,0.51
2023-02-03T05:31:37.983Z,0.52
2023-02-03T05:32:37.936Z,0.51
2023-02-03T05:33:37.924Z,0.51
2023-02-03T05:34:37.914Z,0.51
2023-02-03T05:35:37.886Z,0.51
2023-02-03T05:36:37.876Z,0.51
2023-02-03T05:37:37.856Z,0.51
2023-02-03T05:38:37.847Z,0.51
2023-02-03T05:39:37.827Z,0.51
2023-02-03T05:40:37.813Z,0.51
2023-02-03T05:41:37.824Z,0.50
2023-02-03T05:42:37.784Z,0.51
2023-02-03T05:43:37.778Z,0.51
2023-02-03T05:44:37.768Z,0.50
2023-02-03T05:45:37.802Z,0.51
2023-02-03T05:46:37.722Z,0.51
2023-02-03T05:47:37.726Z,0.51
2023-02-03T05:48:37.690Z,0.51
2023-02-03T05:49:37.660Z,0.51
2023-02-03T05:50:38.824Z,0.51
2023-02-03T05:51:37.627Z,0.51
2023-02-03T05:52:37.636Z,0.51
2023-02-03T05:53:37.593Z,0.51
2023-02-03T05:54:37.565Z,0.51
2023-02-03T05:55:37.570Z,0.51
2023-02-03T05:56:37.544Z,0.51
2023-02-03T05:57:37.511Z,0.51
2023-02-03T05:58:37.504Z,0.51
2023-02-03T05:59:37.473Z,0.51
2023-02-03T06:00:37.465Z,0.52
2023-02-03T06:01:37.442Z,0.51
2023-02-03T06:02:37.439Z,0.51
2023-02-03T06:03:37.467Z,0.52
2023-02-03T06:04:37.438Z,0.52
2023-02-03T06:05:37.411Z,0.51
2023-02-03T06:06:37.414Z,0.52
2023-02-03T06:07:37.382Z,0.51
2023-02-03T06:08:37.368Z,0.51
2023-02-03T06:09:37.369Z,0.51
2023-02-03T06:10:37.351Z,0.52
2023-02-03T06:11:37.325Z,0.52
2023-02-03T06:12:37.332Z,0.52
2023-02-03T06:13:37.311Z,0.51
2023-02-03T06:14:37.314Z,0.52
2023-02-03T06:15:37.299Z,0.52
2023-02-03T06:16:37.337Z,0.51
2023-02-03T06:17:37.295Z,0.51
2023-02-03T06:18:37.269Z,0.52
2023-02-03T06:19:37.266Z,0.52
2023-02-03T06:20:37.266Z,0.51
2023-02-03T06:21:37.242Z,0.52
2023-02-03T06:22:37.251Z,0.51
2023-02-03T06:23:37.237Z,0.51
2023-02-03T06:24:37.230Z,0.51
2023-02-03T06:25:37.213Z,0.51
2023-02-03T06:26:37.204Z,0.51
2023-02-03T06:27:37.269Z,0.51
2023-02-03T06:28:37.248Z,0.52
2023-02-03T06:29:37.186Z,0.52
2023-02-03T06:30:37.247Z,0.51
2023-02-03T06:31:37.410Z,0.51
2023-02-03T06:32:37.155Z,0.51
2023-02-03T06:33:37.144Z,0.51
2023-02-03T06:34:37.136Z,0.51
2023-02-03T06:35:37.112Z,0.53
2023-02-03T06:36:37.109Z,0.52
2023-02-03T06:37:37.093Z,0.53
2023-02-03T06:38:37.100Z,0.50
2023-02-03T06:39:37.085Z,0.50
2023-02-03T06:40:37.081Z,0.50
2023-02-03T06:41:37.061Z,0.52
2023-02-03T06:42:37.064Z,0.50
2023-02-03T06:43:37.037Z,0.53
2023-02-03T06:44:37.018Z,0.63
2023-02-03T06:45:37.000Z,0.52
2023-02-03T06:46:37.041Z,0.52
2023-02-03T06:47:36.969Z,0.62
2023-02-03T06:48:36.947Z,0.67
2023-02-03T06:49:36.939Z,0.73
2023-02-03T06:50:36.926Z,0.81
2023-02-03T06:51:36.903Z,0.83
2023-02-03T06:52:36.899Z,0.87
2023-02-03T06:53:36.879Z,0.85
2023-02-03T06:54:36.847Z,0.90
2023-02-03T06:55:36.844Z,0.92
2023-02-03T06:56:36.840Z,0.95
2023-02-03T06:57:36.802Z,0.97
2023-02-03T06:58:36.803Z,1.05
2023-02-03T06:59:36.755Z,1.06
2023-02-03T07:00:36.776Z,1.06
2023-02-03T07:01:36.794Z,1.19
2023-02-03T07:02:36.757Z,1.34
2023-02-03T07:03:36.699Z,1.26
2023-02-03T07:04:36.696Z,1.39
2023-02-03T07:05:36.661Z,1.43
2023-02-03T07:06:36.648Z,1.39
2023-02-03T07:07:36.735Z,1.52
2023-02-03T07:08:36.598Z,1.44
2023-02-03T07:09:36.597Z,1.56
2023-02-03T07:10:36.568Z,1.46
2023-02-03T07:11:36.545Z,1.60
2023-02-03T07:12:36.678Z,1.64
2023-02-03T07:13:36.505Z,1.73
2023-02-03T07:14:36.473Z,1.74
2023-02-03T07:15:36.483Z,1.59
2023-02-03T07:16:36.446Z,1.66
2023-02-03T07:17:36.422Z,1.56
2023-02-03T07:18:46.817Z,1.66
2023-02-03T07:19:37.384Z,1.67
2023-02-03T07:20:36.355Z,1.64
2023-02-03T07:21:36.334Z,1.65
2023-02-03T07:22:36.308Z,1.64
2023-02-03T07:23:36.302Z,1.69
2023-02-03T07:24:36.279Z,1.69
2023-02-03T07:25:36.252Z,1.69
2023-02-03T07:26:36.214Z,1.66
2023-02-03T07:27:36.282Z,1.71
2023-02-03T07:28:36.170Z,1.70
2023-02-03T07:29:36.148Z,1.74
2023-02-03T07:30:36.128Z,1.78
2023-02-03T07:31:36.184Z,1.86
2023-02-03T07:32:36.051Z,1.83
2023-02-03T07:33:36.030Z,1.84
2023-02-03T07:34:36.071Z,1.84
2023-02-03T07:35:35.969Z,1.85
2023-02-03T07:36:35.939Z,1.84
2023-02-03T07:37:35.908Z,1.88
2023-02-03T07:38:35.921Z,1.88
2023-02-03T07:39:35.854Z,1.89
2023-02-03T07:40:35.797Z,1.99
2023-02-03T07:41:35.781Z,1.88
2023-02-03T07:42:35.749Z,1.86
2023-02-03T07:43:35.707Z,1.83
2023-02-03T07:44:35.679Z,1.92
2023-02-03T07:45:35.647Z,1.91
2023-02-03T07:46:35.644Z,1.94
2023-02-03T07:47:35.602Z,1.97
2023-02-03T07:48:35.587Z,1.90
2023-02-03T07:49:35.552Z,1.83
2023-02-03T07:50:35.521Z,1.83
2023-02-03T07:51:35.489Z,1.83
2023-02-03T07:52:35.471Z,1.75
2023-02-03T07:53:35.429Z,1.67
2023-02-03T07:54:35.427Z,1.67
2023-02-03T07:55:35.388Z,1.62
2023-02-03T07:56:35.353Z,1.57
2023-02-03T07:57:35.373Z,1.53
2023-02-03T07:58:35.292Z,1.52
2023-02-03T07:59:35.280Z,1.42
2023-02-03T08:00:35.259Z,1.42
2023-02-03T08:01:35.257Z,1.40
2023-02-03T08:02:35.209Z,1.40
2023-02-03T08:03:35.182Z,1.38
2023-02-03T08:04:35.188Z,1.34
2023-02-03T08:05:35.152Z,1.40
2023-02-03T08:06:35.114Z,1.32
2023-02-03T08:07:35.126Z,1.29
2023-02-03T08:08:35.065Z,1.27
2023-02-03T08:09:35.053Z,1.23
2023-02-03T08:10:35.040Z,1.17
2023-02-03T08:11:35.037Z,1.19
2023-02-03T08:12:35.001Z,1.18
2023-02-03T08:13:34.970Z,1.17
2023-02-03T08:14:34.941Z,1.14
2023-02-03T08:15:34.909Z,1.13
2023-02-03T08:16:34.940Z,1.11
2023-02-03T08:17:34.879Z,1.11
2023-02-03T08:18:34.857Z,1.08
2023-02-03T08:19:34.817Z,1.04
2023-02-03T08:20:34.805Z,1.05
2023-02-03T08:21:34.774Z,1.04
2023-02-03T08:22:34.786Z,1.05
2023-02-03T08:23:34.709Z,1.02
2023-02-03T08:24:34.715Z,0.99
2023-02-03T08:25:34.705Z,1.01
2023-02-03T08:26:34.651Z,0.97
2023-02-03T08:27:34.640Z,0.96
2023-02-03T08:28:34.562Z,0.95
2023-02-03T08:29:34.555Z,0.95
2023-02-03T08:30:34.524Z,0.92
2023-02-03T08:31:34.659Z,0.95
2023-02-03T08:32:34.486Z,0.91
2023-02-03T08:33:34.482Z,0.91
2023-02-03T08:34:34.428Z,0.85
2023-02-03T08:35:34.414Z,0.84
2023-02-03T08:36:34.361Z,0.74
2023-02-03T08:37:34.356Z,0.71
2023-02-03T08:38:34.332Z,0.60
2023-02-03T08:39:34.331Z,0.54
2023-02-03T08:40:34.299Z,0.49
2023-02-03T08:41:34.308Z,0.52
2023-02-03T08:42:34.272Z,0.54
2023-02-03T08:43:34.260Z,0.51
2023-02-03T08:44:34.244Z,0.50
2023-02-03T08:45:34.291Z,0.51
2023-02-03T08:46:34.230Z,0.50
2023-02-03T08:47:34.220Z,0.50
2023-02-03T08:48:34.218Z,0.50
2023-02-03T08:49:34.211Z,0.50
2023-02-03T08:50:34.222Z,0.50
2023-02-03T08:51:34.206Z,0.47
2023-02-03T08:52:34.227Z,0.51
2023-02-03T08:53:34.212Z,0.48
2023-02-03T08:54:34.205Z,0.51
2023-02-03T08:55:34.204Z,0.49
2023-02-03T08:56:34.236Z,0.50
2023-02-03T08:57:34.206Z,0.51
2023-02-03T08:58:34.194Z,0.51
2023-02-03T08:59:34.194Z,0.53
2023-02-03T09:00:34.219Z,0.56
2023-02-03T09:01:34.199Z,0.59
2023-02-03T09:02:34.211Z,0.64
2023-02-03T09:03:34.223Z,0.61
2023-02-03T09:04:34.261Z,0.67
2023-02-03T09:05:34.266Z,0.78
2023-02-03T09:06:34.237Z,0.88
2023-02-03T09:07:34.238Z,0.89
2023-02-03T09:08:34.233Z,0.89
2023-02-03T09:09:34.241Z,0.89
2023-02-03T09:10:34.249Z,0.89
2023-02-03T09:11:34.251Z,0.84
2023-02-03T09:12:34.277Z,0.86
2023-02-03T09:13:34.280Z,0.82
2023-02-03T09:14:34.277Z,0.82
2023-02-03T09:15:34.288Z,0.98
2023-02-03T09:16:34.329Z,0.93
2023-02-03T09:17:34.296Z,0.85
2023-02-03T09:18:34.305Z,0.83
2023-02-03T09:19:36.172Z,0.81
2023-02-03T09:20:34.327Z,0.92
2023-02-03T09:21:41.992Z,0.95
2023-02-03T09:22:35.353Z,0.80
2023-02-03T09:23:34.367Z,0.74
2023-02-03T09:24:34.378Z,0.70
2023-02-03T09:25:34.453Z,0.71
2023-02-03T09:26:34.366Z,0.74
2023-02-03T09:27:34.379Z,0.77
2023-02-03T09:28:34.387Z,1.03
2023-02-03T09:29:34.376Z,1.31
2023-02-03T09:30:34.479Z,1.47
2023-02-03T09:31:34.401Z,1.54
2023-02-03T09:32:34.383Z,1.82
2023-02-03T09:33:34.391Z,2.22
2023-02-03T09:34:34.397Z,2.55
2023-02-03T09:35:34.819Z,2.91
2023-02-03T09:36:34.459Z,3.19
2023-02-03T09:37:34.404Z,3.16
2023-02-03T09:38:34.362Z,3.25
2023-02-03T09:39:34.354Z,4.89
2023-02-03T09:40:34.351Z,6.45
2023-02-03T09:41:34.358Z,8.24
2023-02-03T09:42:34.454Z,7.33
2023-02-03T09:43:34.295Z,6.26
2023-02-03T09:44:34.267Z,5.32
2023-02-03T09:45:34.297Z,4.96
2023-02-03T09:46:34.243Z,4.37
2023-02-03T09:47:34.239Z,4.66
2023-02-03T09:48:34.228Z,4.71
2023-02-03T09:49:34.212Z,4.50
2023-02-03T09:50:34.205Z,4.64
2023-02-03T09:51:34.178Z,4.64
2023-02-03T09:52:34.153Z,4.72
2023-02-03T09:53:34.135Z,5.07
2023-02-03T09:54:34.117Z,5.08
2023-02-03T09:55:34.108Z,5.13
2023-02-03T09:56:34.082Z,5.27
2023-02-03T09:57:34.050Z,5.39
2023-02-03T09:58:34.028Z,5.62
2023-02-03T09:59:34.013Z,5.70
2023-02-03T10:00:33.976Z,5.71
2023-02-03T10:01:34.010Z,5.88
2023-02-03T10:02:33.965Z,5.94
2023-02-03T10:03:33.979Z,6.04
2023-02-03T10:04:33.917Z,6.09
2023-02-03T10:05:33.896Z,6.18
2023-02-03T10:06:33.882Z,6.16
2023-02-03T10:07:33.846Z,6.20
2023-02-03T10:08:33.821Z,6.32
2023-02-03T10:09:33.815Z,6.69
2023-02-03T10:10:33.782Z,6.64
2023-02-03T10:11:33.784Z,6.67
2023-02-03T10:12:33.738Z,6.69
2023-02-03T10:13:33.728Z,6.38
2023-02-03T10:14:33.722Z,5.95
2023-02-03T10:15:33.688Z,6.22
2023-02-03T10:16:33.683Z,5.98
2023-02-03T10:17:33.709Z,6.00
2023-02-03T10:18:33.651Z,6.26
2023-02-03T10:19:33.740Z,6.21
2023-02-03T10:20:33.671Z,6.20
2023-02-03T10:21:33.830Z,6.45
2023-02-03T10:22:33.501Z,6.09
2023-02-03T10:23:33.482Z,6.00
2023-02-03T10:24:33.467Z,6.08
2023-02-03T10:25:33.440Z,5.67
2023-02-03T10:26:33.443Z,5.62
2023-02-03T10:27:33.393Z,5.69
2023-02-03T10:28:33.366Z,5.47
2023-02-03T10:29:33.356Z,5.81
2023-02-03T10:30:33.775Z,5.79
2023-02-03T10:31:33.451Z,5.67
2023-02-03T10:32:33.306Z,5.56
2023-02-03T10:33:33.280Z,5.36
2023-02-03T10:34:33.256Z,5.54
2023-02-03T10:35:33.228Z,5.49
2023-02-03T10:36:33.207Z,5.25
2023-02-03T10:37:33.187Z,5.12
2023-02-03T10:38:33.161Z,5.08
2023-02-03T10:39:33.141Z,5.07
2023-02-03T10:40:33.113Z,5.10
2023-02-03T10:41:33.093Z,4.87
2023-02-03T10:42:33.059Z,4.77
2023-02-03T10:43:33.038Z,4.68
2023-02-03T10:44:33.017Z,4.64
2023-02-03T10:45:32.996Z,4.62
2023-02-03T10:46:33.046Z,4.62
2023-02-03T10:47:32.961Z,4.77
2023-02-03T10:48:32.957Z,4.65
2023-02-03T10:49:32.909Z,4.61
2023-02-03T10:50:32.886Z,4.73
2023-02-03T10:51:32.870Z,4.56
2023-02-03T10:52:32.861Z,4.72
2023-02-03T10:53:32.828Z,4.72
2023-02-03T10:54:32.855Z,4.61
2023-02-03T10:55:32.808Z,4.48
2023-02-03T10:56:32.822Z,4.61
2023-02-03T10:57:32.756Z,4.48
2023-02-03T10:58:32.735Z,4.40
2023-02-03T10:59:32.742Z,4.37
2023-02-03T11:00:32.682Z,4.51
2023-02-03T11:01:32.716Z,4.33
2023-02-03T11:02:32.684Z,4.30
2023-02-03T11:03:32.648Z,4.44
2023-02-03T11:04:32.607Z,4.23
2023-02-03T11:05:32.590Z,4.32
2023-02-03T11:06:32.556Z,4.43
2023-02-03T11:07:32.541Z,4.31
2023-02-03T11:08:32.511Z,4.43
2023-02-03T11:09:32.497Z,4.31
2023-02-03T11:10:32.478Z,4.07
2023-02-03T11:11:32.455Z,4.11
2023-02-03T11:12:32.437Z,4.14
2023-02-03T11:13:32.416Z,4.14
2023-02-03T11:14:32.388Z,4.11
2023-02-03T11:15:32.507Z,4.00
2023-02-03T11:16:32.358Z,4.03
2023-02-03T11:17:32.325Z,3.93
2023-02-03T11:18:32.295Z,3.82
2023-02-03T11:19:32.271Z,3.92
2023-02-03T11:20:32.253Z,4.10
2023-02-03T11:21:32.226Z,4.11
2023-02-03T11:22:32.197Z,4.11
2023-02-03T11:23:32.167Z,3.82
2023-02-03T11:24:32.162Z,3.92
2023-02-03T11:25:32.128Z,3.83
2023-02-03T11:26:32.100Z,3.84
2023-02-03T11:27:32.076Z,3.81
2023-02-03T11:28:32.036Z,3.77
2023-02-03T11:29:32.016Z,3.67
2023-02-03T11:30:32.003Z,3.78
2023-02-03T11:31:32.324Z,3.61
2023-02-03T11:32:31.935Z,3.57
2023-02-03T11:33:31.910Z,3.51
2023-02-03T11:34:31.894Z,3.70
2023-02-03T11:35:32.011Z,3.67
2023-02-03T11:36:31.842Z,3.62
2023-02-03T11:37:31.794Z,3.75
2023-02-03T11:38:31.778Z,3.48
2023-02-03T11:39:31.736Z,3.59
2023-02-03T11:40:31.705Z,3.39
2023-02-03T11:41:31.673Z,3.44
2023-02-03T11:42:31.657Z,3.46
2023-02-03T11:43:31.629Z,3.46
2023-02-03T11:44:31.617Z,3.47
2023-02-03T11:45:31.579Z,3.46
2023-02-03T11:46:31.584Z,3.49
2023-02-03T11:47:31.616Z,3.54
2023-02-03T11:48:31.529Z,3.33
2023-02-03T11:49:31.486Z,3.24
2023-02-03T11:50:31.568Z,3.41
2023-02-03T11:51:31.428Z,3.24
2023-02-03T11:52:31.405Z,3.28
2023-02-03T11:53:31.397Z,3.23
2023-02-03T11:54:31.345Z,3.34
2023-02-03T11:55:31.327Z,3.27
2023-02-03T11:56:31.284Z,3.29
2023-02-03T11:57:31.322Z,3.21
2023-02-03T11:58:31.231Z,3.26
2023-02-03T11:59:31.197Z,3.13
2023-02-03T12:00:31.202Z,3.25
2023-02-03T12:01:31.140Z,3.21
2023-02-03T12:02:31.196Z,3.15
2023-02-03T12:03:31.101Z,3.28
2023-02-03T12:04:31.094Z,3.10
2023-02-03T12:05:31.260Z,3.22
2023-02-03T12:06:31.004Z,3.12
2023-02-03T12:07:30.975Z,3.23
2023-02-03T12:08:30.966Z,3.08
2023-02-03T12:09:30.937Z,3.07
2023-02-03T12:10:31.098Z,3.09
2023-02-03T12:11:30.876Z,3.16
2023-02-03T12:13:30.893Z,3.10
2023-02-03T12:22:30.568Z,2.98
2023-02-03T17:53:49.308Z,0.50
2023-02-03T17:54:49.283Z,0.50
2023-02-03T17:55:49.266Z,0.50
2023-02-03T17:56:49.242Z,0.50
2023-02-03T17:57:49.223Z,0.50
2023-02-03T17:58:49.209Z,0.50
2023-02-03T17:59:49.191Z,0.50
2023-02-03T18:00:49.192Z,0.50
2023-02-03T18:01:49.154Z,0.51
2023-02-03T18:02:49.128Z,0.51
2023-02-03T18:03:49.107Z,0.50
2023-02-03T18:04:49.093Z,0.51
2023-02-03T18:05:49.072Z,0.50
2023-02-03T18:06:49.065Z,0.50
2023-02-03T18:08:50.129Z,0.51
2023-02-03T18:09:49.017Z,0.51
2023-02-03T18:10:48.991Z,0.51
2023-02-03T18:11:48.971Z,0.50
2023-02-03T18:12:48.963Z,0.50
2023-02-03T18:13:48.937Z,0.49
2023-02-03T18:14:48.930Z,0.50
2023-02-03T18:15:48.896Z,0.51
2023-02-03T18:16:48.920Z,0.50
2023-02-03T18:17:48.868Z,0.50
2023-02-03T18:18:48.838Z,0.51
2023-02-03T18:19:54.846Z,0.51
2023-02-03T18:20:49.803Z,0.51
2023-02-03T18:21:48.768Z,0.51
2023-02-03T18:22:48.747Z,0.51
2023-02-03T18:23:48.730Z,0.50
2023-02-03T18:24:48.714Z,0.50
2023-02-03T18:25:48.676Z,0.50
2023-02-03T18:26:48.673Z,0.51
2023-02-03T18:27:48.632Z,0.51
2023-02-03T18:28:48.611Z,0.51
2023-02-03T18:29:48.594Z,0.51
2023-02-03T18:30:48.673Z,0.50
2023-02-03T18:31:48.596Z,0.51
2023-02-03T18:32:48.532Z,0.52
2023-02-03T18:33:48.521Z,0.51
2023-02-03T18:34:48.510Z,0.50
2023-02-03T18:35:48.491Z,0.51
2023-02-03T18:36:48.479Z,0.51
2023-02-03T18:37:48.452Z,0.51
2023-02-03T18:38:48.445Z,0.51
2023-02-03T18:39:48.421Z,0.51
2023-02-03T18:40:48.412Z,0.52
2023-02-03T18:41:48.387Z,0.50
2023-02-03T18:42:48.385Z,0.51
2023-02-03T18:43:48.373Z,0.50
2023-02-03T18:44:48.361Z,0.50
2023-02-03T18:45:48.381Z,0.50
2023-02-03T18:46:48.333Z,0.51
2023-02-03T18:47:48.311Z,0.51
2023-02-03T18:48:48.294Z,0.51
2023-02-03T18:49:48.278Z,0.50
2023-02-03T18:50:48.266Z,0.51
2023-02-03T18:51:48.233Z,0.51
2023-02-03T18:52:48.212Z,0.51
2023-02-03T18:53:48.185Z,0.51
2023-02-03T18:54:48.177Z,0.51
2023-02-03T18:55:48.166Z,0.51
2023-02-03T18:56:48.138Z,0.51
2023-02-03T18:57:48.124Z,0.51
2023-02-03T18:58:48.095Z,0.52
2023-02-03T18:59:48.085Z,0.51